X  Zamknij Dane z Metar lotniska     EPKK Kraków John Paul II International Airport
Temperatura
7°C Temperatura
6°C Punkt rosy
93% Wilgotność



Wiatr
16 KM/H
10 MPH
4 M/S
9 KTS



240°
WSW
Warunki bieżące

Mgiełka Mgiełka
Ciśnienie 1023.92 (hPa) - 30.24 (inHg)
Widoczność 3.1 (mile) - 5 (km)
Lotnisko
Kod lotniska EPKK

Położenie: Kraków John Paul II International Airport
Odległość: 14 (km)

Metar:
EPKK 180800Z 24009KT 5000 BR BKN008 07/06 Q1024

Czas: 18-10-2021 10:00 CEST